»·PEaware :: N122SQ KTEX-KAPA

N122SQ :: KTEX-KAPA

FLIGHT INFORMATION

Flight Status: Arrived
Operator: Privately registered:
United States
More flights under this callsign
Pilot: Gabor H. (24209)
Aircraft: CIRRUS SR-22 TURBO
(S22T)
More flights by this aircraft type
Origin: KTEX Telluride Regl
United States
Destination: KAPA Centennial
United States
More flights between these airports :: More routes between these airports
Route: ETL HBU LARKS2
File this flight plan on PilotEdge
Remarks:
Altitude:
(Current/Filed)
17,000ft
Speed:
(Current/Filed)
160kts
Departed: 21-Nov-23 08:16 AM
Arrived: 21-Nov-23 09:27 AM
Distance/Time
Traveled:
173nm/1:11
Distance/Time
To Go:
Arrived

Flight Plot

Page will automatically refresh every two minutes.

Flight plan parsing failed; only flown route is shown


Map Options




Map Legend


Flown Route
Filed Route
Departure Airport
Arrival Airport
Navaid (VOR, NDB)
Fix

Horizontal Profiles

Position Reports

Time Latitude Longitude Heading Altitude Ground
Speed
21-Nov-23 08:05 37.954284 -107.902759 105 9073ft 0kts
21-Nov-23 08:06 37.954284 -107.902759 105 9073ft 0kts
21-Nov-23 08:07 37.954284 -107.902759 105 9073ft 0kts
21-Nov-23 08:08 37.954284 -107.902759 105 9073ft 0kts
21-Nov-23 08:09 37.954284 -107.902759 105 9073ft 0kts
21-Nov-23 08:10 37.954284 -107.902759 105 9073ft 0kts
21-Nov-23 08:11 37.954284 -107.902759 105 9073ft 0kts
21-Nov-23 08:12 37.954284 -107.902759 105 9073ft 0kts
21-Nov-23 08:13 37.954284 -107.902759 105 9073ft 0kts
21-Nov-23 08:14 37.954283 -107.902752 103 9073ft 0kts
21-Nov-23 08:15 37.952979 -107.899303 103 9073ft 22kts
21-Nov-23 08:16 37.952529 -107.902737 284 9073ft 86kts
21-Nov-23 08:17 37.953045 -107.934875 188 10225ft 96kts
21-Nov-23 08:18 37.941512 -107.902146 105 11102ft 128kts
21-Nov-23 08:19 37.911725 -107.868738 120 11996ft 156kts
21-Nov-23 08:20 37.912679 -107.816977 68 12995ft 154kts
21-Nov-23 08:21 37.923300 -107.767402 70 14305ft 142kts
21-Nov-23 08:22 37.945740 -107.723819 42 15133ft 152kts
21-Nov-23 08:23 37.975284 -107.684347 43 15491ft 164kts
21-Nov-23 08:24 38.006115 -107.642951 43 15485ft 157kts
21-Nov-23 08:25 38.036330 -107.602459 43 15487ft 159kts
21-Nov-23 08:26 38.066531 -107.561889 43 15484ft 156kts
21-Nov-23 08:27 38.096838 -107.521161 43 15495ft 160kts
21-Nov-23 08:28 38.127461 -107.479910 43 15513ft 159kts
21-Nov-23 08:29 38.158168 -107.438523 43 15474ft 161kts
21-Nov-23 08:29 38.183692 -107.404070 43 15485ft 160kts
21-Nov-23 08:31 38.218633 -107.356833 43 15491ft 155kts
21-Nov-23 08:32 38.248733 -107.316111 43 15501ft 157kts
21-Nov-23 08:33 38.278435 -107.275864 43 15501ft 155kts
21-Nov-23 08:34 38.307975 -107.235791 43 15501ft 155kts
21-Nov-23 08:34 38.332694 -107.202222 43 15500ft 155kts
21-Nov-23 08:35 38.362237 -107.162035 43 15501ft 156kts
21-Nov-23 08:37 38.396851 -107.114890 43 15500ft 156kts
21-Nov-23 08:37 38.419102 -107.084543 41 16452ft 133kts
21-Nov-23 08:39 38.450453 -107.041751 45 17010ft 158kts
21-Nov-23 08:40 38.468626 -106.989055 60 17059ft 161kts
21-Nov-23 08:40 38.483165 -106.944988 60 17006ft 162kts
21-Nov-23 08:41 38.500566 -106.892004 59 16964ft 165kts
21-Nov-23 08:42 38.518066 -106.838801 61 17000ft 164kts
21-Nov-23 08:44 38.538409 -106.776733 57 17009ft 165kts
21-Nov-23 08:44 38.552848 -106.732571 59 17034ft 158kts
21-Nov-23 08:45 38.569771 -106.680595 62 16964ft 162kts
21-Nov-23 08:46 38.587117 -106.627641 61 16987ft 160kts
21-Nov-23 08:47 38.604175 -106.575009 61 16974ft 161kts
21-Nov-23 08:48 38.621255 -106.522384 61 17044ft 157kts
21-Nov-23 08:49 38.638351 -106.469709 60 17038ft 158kts
21-Nov-23 08:50 38.655599 -106.416394 60 16966ft 164kts
21-Nov-23 08:51 38.672758 -106.363180 58 16970ft 161kts
21-Nov-23 08:52 38.690033 -106.309633 60 16974ft 162kts
21-Nov-23 08:53 38.707482 -106.255542 60 16921ft 163kts
21-Nov-23 08:54 38.724833 -106.201403 60 16977ft 162kts
21-Nov-23 08:55 38.742294 -106.146967 61 16863ft 168kts
21-Nov-23 08:56 38.759563 -106.093015 59 16979ft 164kts
21-Nov-23 08:57 38.780449 -106.042019 44 16985ft 158kts
21-Nov-23 08:58 38.808888 -105.998592 45 16920ft 159kts
21-Nov-23 08:59 38.836798 -105.956005 44 16926ft 154kts
21-Nov-23 09:00 38.864279 -105.913939 44 16921ft 153kts
21-Nov-23 09:01 38.891645 -105.871971 44 16913ft 154kts
21-Nov-23 09:02 38.919054 -105.829826 44 16913ft 153kts
21-Nov-23 09:03 38.946482 -105.787585 44 16887ft 154kts
21-Nov-23 09:04 38.974098 -105.745013 44 16884ft 153kts
21-Nov-23 09:05 39.002517 -105.701120 44 16880ft 153kts
21-Nov-23 09:06 39.030533 -105.657830 44 16861ft 154kts
21-Nov-23 09:07 39.058372 -105.614699 44 16856ft 154kts
21-Nov-23 09:08 39.086254 -105.571484 44 16859ft 153kts
21-Nov-23 09:09 39.114078 -105.528330 44 16865ft 154kts
21-Nov-23 09:10 39.142510 -105.484130 44 16692ft 162kts
21-Nov-23 09:11 39.173509 -105.435828 44 16227ft 168kts
21-Nov-23 09:12 39.205242 -105.386335 44 15749ft 170kts
21-Nov-23 09:13 39.236101 -105.338162 45 15288ft 170kts
21-Nov-23 09:14 39.265852 -105.291748 45 15065ft 162kts
21-Nov-23 09:15 39.295701 -105.249634 28 15006ft 158kts
21-Nov-23 09:16 39.338326 -105.216757 27 14072ft 179kts
21-Nov-23 09:17 39.383953 -105.181622 27 13018ft 181kts
21-Nov-23 09:18 39.428461 -105.146640 28 11996ft 183kts
21-Nov-23 09:19 39.473433 -105.111514 28 10963ft 185kts
21-Nov-23 09:20 39.519690 -105.076276 28 9907ft 185kts
21-Nov-23 09:21 39.564365 -105.034440 38 8839ft 189kts
21-Nov-23 09:22 39.599495 -104.981788 47 7991ft 187kts
21-Nov-23 09:23 39.611921 -104.917590 87 7177ft 175kts
21-Nov-23 09:24 39.614807 -104.868713 88 6953ft 97kts
21-Nov-23 09:25 39.598172 -104.852160 176 6178ft 85kts
21-Nov-23 09:26 39.577737 -104.851181 175 5887ft 34kts
21-Nov-23 09:27 39.574292 -104.849791 100 5887ft 0kts
21-Nov-23 09:28 39.573289 -104.847013 112 5887ft 21kts
21-Nov-23 09:29 39.572507 -104.841712 77 5887ft 3kts
21-Nov-23 09:30 39.572510 -104.841682 90 5887ft 0kts
21-Nov-23 09:31 39.572510 -104.841682 90 5887ft 0kts
21-Nov-23 09:32 39.572510 -104.841682 90 5887ft 0kts
21-Nov-23 09:33 39.572510 -104.841682 90 5887ft 0kts
21-Nov-23 09:34 39.572510 -104.841682 90 5887ft 0kts
21-Nov-23 09:35 39.572510 -104.841682 90 5887ft 0kts
21-Nov-23 09:36 39.572510 -104.841682 90 5887ft 0kts

Navigation Log

Ident Type
Flight plan parsing failed, navigation log unavailable